createdAt,value
2018-08-24T00:02:12.202Z,22.77
2018-08-24T00:04:40.674Z,22.43
2018-08-24T00:07:09.163Z,23.80
2018-08-24T00:09:37.642Z,23.93
2018-08-24T00:12:06.256Z,29.87
2018-08-24T00:14:34.686Z,27.73
2018-08-24T00:17:03.194Z,26.70
2018-08-24T00:19:31.646Z,26.13
2018-08-24T00:22:00.078Z,22.43
2018-08-24T00:24:28.520Z,28.40
2018-08-24T00:26:56.947Z,23.57
2018-08-24T00:29:25.416Z,21.60
2018-08-24T00:31:53.912Z,20.23
2018-08-24T00:34:22.278Z,32.00
2018-08-24T00:36:50.781Z,21.23
2018-08-24T00:39:19.282Z,20.80
2018-08-24T00:41:47.746Z,23.27
2018-08-24T00:44:16.152Z,16.10
2018-08-24T00:46:44.646Z,18.23
2018-08-24T00:49:13.128Z,21.93
2018-08-24T00:51:41.656Z,13.93
2018-08-24T00:54:10.156Z,18.00
2018-08-24T00:56:38.652Z,17.97
2018-08-24T00:59:07.101Z,21.73
2018-08-24T01:01:35.578Z,20.53
2018-08-24T01:04:04.049Z,22.63
2018-08-24T01:06:32.513Z,19.23
2018-08-24T01:09:00.940Z,18.73
2018-08-24T01:12:32.309Z,20.40
2018-08-24T01:15:03.452Z,19.47
2018-08-24T01:17:37.425Z,19.60
2018-08-24T01:20:05.973Z,17.67
2018-08-24T01:22:34.427Z,17.27
2018-08-24T01:25:03.013Z,18.20
2018-08-24T01:27:31.467Z,17.67
2018-08-24T01:29:59.909Z,15.90
2018-08-24T01:32:28.343Z,17.63
2018-08-24T01:34:56.791Z,20.47
2018-08-24T01:37:25.257Z,16.70
2018-08-24T01:39:53.743Z,18.70
2018-08-24T01:42:22.197Z,17.53
2018-08-24T01:44:50.643Z,20.90
2018-08-24T01:47:19.089Z,13.57
2018-08-24T01:49:47.524Z,17.70
2018-08-24T01:52:15.986Z,16.80
2018-08-24T01:54:44.417Z,15.73
2018-08-24T01:57:12.868Z,18.70
2018-08-24T01:59:41.298Z,17.33
2018-08-24T02:02:09.742Z,17.03
2018-08-24T02:04:38.192Z,14.70
2018-08-24T02:07:06.674Z,12.97
2018-08-24T02:09:35.153Z,15.07
2018-08-24T02:12:03.666Z,14.87
2018-08-24T02:14:37.669Z,12.07
2018-08-24T02:17:10.378Z,14.67
2018-08-24T02:19:44.074Z,18.00
2018-08-24T02:22:18.280Z,19.60
2018-08-24T02:24:46.776Z,14.40
2018-08-24T02:27:15.253Z,14.77
2018-08-24T02:29:43.723Z,14.10
2018-08-24T02:32:12.164Z,16.57
2018-08-24T02:34:40.610Z,20.47
2018-08-24T02:37:09.073Z,13.93
2018-08-24T02:39:37.559Z,16.67
2018-08-24T02:42:06.051Z,16.73
2018-08-24T02:44:34.501Z,15.33
2018-08-24T02:47:02.951Z,16.13
2018-08-24T02:49:31.385Z,13.40
2018-08-24T02:51:59.846Z,16.47
2018-08-24T02:54:28.355Z,18.43
2018-08-24T02:56:56.776Z,17.37
2018-08-24T02:59:25.235Z,19.83
2018-08-24T03:01:53.734Z,13.73
2018-08-24T03:04:22.217Z,15.83
2018-08-24T03:06:50.683Z,13.40
2018-08-24T03:09:19.173Z,14.10
2018-08-24T03:11:47.637Z,18.07
2018-08-24T03:14:16.070Z,12.73
2018-08-24T03:16:49.789Z,15.57
2018-08-24T03:19:18.249Z,16.23
2018-08-24T03:21:46.707Z,18.27
2018-08-24T03:24:15.171Z,12.60
2018-08-24T03:26:43.613Z,13.97
2018-08-24T03:29:12.049Z,13.37
2018-08-24T03:31:40.476Z,11.30
2018-08-24T03:34:08.949Z,14.57
2018-08-24T03:36:37.380Z,15.33
2018-08-24T03:39:07.759Z,16.10
2018-08-24T03:41:36.246Z,18.20
2018-08-24T03:44:04.955Z,16.70
2018-08-24T03:46:33.407Z,12.73
2018-08-24T03:49:01.867Z,15.70
2018-08-24T03:51:30.396Z,14.07
2018-08-24T03:53:58.882Z,13.40
2018-08-24T03:56:27.376Z,12.33
2018-08-24T03:58:55.826Z,11.90
2018-08-24T04:01:24.340Z,14.37
2018-08-24T04:03:52.766Z,14.23
2018-08-24T04:06:21.230Z,14.87
2018-08-24T04:08:49.640Z,12.53
2018-08-24T04:11:18.062Z,10.20
2018-08-24T04:13:46.497Z,23.17
2018-08-24T04:16:14.953Z,11.50
2018-08-24T04:18:43.424Z,11.30
2018-08-24T04:21:11.893Z,11.93
2018-08-24T04:23:40.323Z,11.17
2018-08-24T04:26:08.764Z,9.70
2018-08-24T04:28:37.209Z,8.93
2018-08-24T04:31:05.735Z,11.50
2018-08-24T04:33:34.177Z,10.93
2018-08-24T04:36:02.605Z,11.07
2018-08-24T04:38:31.075Z,6.83
2018-08-24T04:40:59.547Z,8.73
2018-08-24T04:43:27.988Z,12.17
2018-08-24T04:45:56.439Z,10.37
2018-08-24T04:48:24.869Z,13.10
2018-08-24T04:50:53.325Z,14.20
2018-08-24T04:53:21.826Z,11.17
2018-08-24T04:55:50.262Z,11.60
2018-08-24T04:58:18.826Z,8.90
2018-08-24T05:00:47.240Z,11.53
2018-08-24T05:03:15.677Z,16.43
2018-08-24T05:05:44.194Z,12.80
2018-08-24T05:08:12.598Z,10.23
2018-08-24T05:10:41.052Z,16.00
2018-08-24T05:13:09.539Z,12.23
2018-08-24T05:15:37.982Z,13.17
2018-08-24T05:18:06.460Z,14.17
2018-08-24T05:20:34.902Z,14.87
2018-08-24T05:23:09.092Z,13.50
2018-08-24T05:25:37.622Z,14.03
2018-08-24T05:28:06.211Z,14.23
2018-08-24T05:30:34.668Z,9.23
2018-08-24T05:33:03.112Z,12.83
2018-08-24T05:35:31.607Z,8.60
2018-08-24T05:38:01.928Z,14.20
2018-08-24T05:40:32.190Z,13.37
2018-08-24T05:43:01.304Z,13.17
2018-08-24T05:45:38.734Z,8.90
2018-08-24T05:48:07.354Z,9.20
2018-08-24T05:50:35.912Z,10.10
2018-08-24T05:53:05.550Z,16.10
2018-08-24T05:55:34.173Z,13.27
2018-08-24T05:58:02.583Z,11.77
2018-08-24T06:00:37.281Z,15.37
2018-08-24T06:03:06.292Z,11.27
2018-08-24T06:05:34.757Z,16.03
2018-08-24T06:08:03.400Z,13.07
2018-08-24T06:10:32.522Z,18.03
2018-08-24T06:13:08.337Z,21.27
2018-08-24T06:15:36.850Z,15.87
2018-08-24T06:18:18.241Z,9.17
2018-08-24T06:20:47.008Z,11.70
2018-08-24T06:23:15.708Z,17.13
2018-08-24T06:25:44.514Z,12.83
2018-08-24T06:28:13.427Z,11.30
2018-08-24T06:30:41.893Z,18.47
2018-08-24T06:33:10.372Z,10.37
2018-08-24T06:35:38.829Z,14.13
2018-08-24T06:38:07.352Z,12.23
2018-08-24T06:40:35.792Z,10.43
2018-08-24T06:43:04.272Z,12.90
2018-08-24T06:45:32.702Z,12.23
2018-08-24T06:48:01.130Z,10.20
2018-08-24T06:50:29.683Z,10.43
2018-08-24T06:52:58.213Z,9.30
2018-08-24T06:55:26.695Z,12.67
2018-08-24T06:57:55.164Z,10.60
2018-08-24T07:00:29.097Z,9.83
2018-08-24T07:02:57.597Z,12.77
2018-08-24T07:05:26.139Z,8.93
2018-08-24T07:07:54.887Z,8.57
2018-08-24T07:10:23.603Z,7.80
2018-08-24T07:12:52.253Z,11.53
2018-08-24T07:15:20.785Z,13.33
2018-08-24T07:17:54.715Z,8.27
2018-08-24T07:20:23.235Z,14.53
2018-08-24T07:22:51.716Z,7.90
2018-08-24T07:25:20.203Z,11.03
2018-08-24T07:27:48.713Z,12.63
2018-08-24T07:30:17.359Z,8.00
2018-08-24T07:32:45.853Z,10.77
2018-08-24T07:35:14.567Z,7.17
2018-08-24T07:37:43.137Z,10.27
2018-08-24T07:40:11.639Z,6.93
2018-08-24T07:42:40.253Z,10.63
2018-08-24T07:45:08.808Z,8.53
2018-08-24T07:47:37.337Z,12.67
2018-08-24T07:50:06.073Z,11.93
2018-08-24T07:52:34.507Z,12.37
2018-08-24T07:55:02.989Z,13.53
2018-08-24T07:57:31.447Z,13.40
2018-08-24T07:59:59.927Z,10.80
2018-08-24T08:02:33.703Z,12.00
2018-08-24T08:05:02.245Z,16.23
2018-08-24T08:07:30.717Z,11.57
2018-08-24T08:09:59.201Z,12.17
2018-08-24T08:12:27.746Z,11.67
2018-08-24T08:15:01.553Z,12.03
2018-08-24T08:17:30.034Z,10.23
2018-08-24T08:19:58.571Z,12.03
2018-08-24T08:22:27.030Z,8.40
2018-08-24T08:24:55.483Z,10.70
2018-08-24T08:27:23.929Z,11.80
2018-08-24T08:29:58.515Z,6.37
2018-08-24T08:32:27.598Z,10.77
2018-08-24T08:34:56.070Z,10.07
2018-08-24T08:37:24.847Z,7.73
2018-08-24T08:39:58.306Z,10.07
2018-08-24T08:42:27.076Z,5.77
2018-08-24T08:44:55.545Z,8.27
2018-08-24T08:47:24.077Z,10.37
2018-08-24T08:49:55.533Z,10.70
2018-08-24T08:52:24.024Z,8.27
2018-08-24T08:54:52.711Z,10.63
2018-08-24T08:57:21.405Z,10.77
2018-08-24T08:59:49.894Z,9.37
2018-08-24T09:02:18.353Z,8.67
2018-08-24T09:04:46.829Z,11.03
2018-08-24T09:07:15.427Z,12.97
2018-08-24T09:09:43.904Z,10.73
2018-08-24T09:12:12.381Z,14.13
2018-08-24T09:14:41.467Z,10.33
2018-08-24T09:18:19.133Z,9.80
2018-08-24T09:20:53.027Z,18.03
2018-08-24T09:23:26.890Z,13.53
2018-08-24T09:26:00.579Z,10.50
2018-08-24T09:28:37.371Z,8.73
2018-08-24T09:31:13.563Z,15.57
2018-08-24T09:33:42.028Z,12.77
2018-08-24T09:36:15.781Z,11.57
2018-08-24T09:38:44.261Z,9.23
2018-08-24T09:41:12.790Z,13.20
2018-08-24T09:43:46.709Z,7.87
2018-08-24T09:46:15.226Z,9.10
2018-08-24T09:48:49.016Z,6.93
2018-08-24T09:51:22.780Z,8.17
2018-08-24T09:53:56.561Z,7.17
2018-08-24T09:56:25.091Z,7.63
2018-08-24T09:58:53.652Z,7.70
2018-08-24T10:01:27.577Z,8.40
2018-08-24T10:04:01.566Z,10.10
2018-08-24T10:06:35.381Z,6.97
2018-08-24T10:09:05.983Z,7.23
2018-08-24T10:11:34.571Z,6.77
2018-08-24T10:14:03.144Z,6.50
2018-08-24T10:16:31.616Z,6.97
2018-08-24T10:19:00.232Z,7.80
2018-08-24T10:21:28.898Z,8.63
2018-08-24T10:23:57.454Z,8.83
2018-08-24T10:26:26.156Z,6.10
2018-08-24T10:28:54.683Z,6.07
2018-08-24T10:31:23.150Z,9.93
2018-08-24T10:33:51.618Z,7.57
2018-08-24T10:36:20.121Z,9.37
2018-08-24T10:38:48.615Z,6.47
2018-08-24T10:41:17.173Z,7.13
2018-08-24T10:43:45.690Z,10.97
2018-08-24T10:46:14.218Z,5.37
2018-08-24T10:48:42.831Z,7.67
2018-08-24T10:51:11.484Z,3.93
2018-08-24T10:53:40.293Z,8.60
2018-08-24T10:56:08.835Z,9.97
2018-08-24T10:58:37.411Z,5.37
2018-08-24T11:01:06.119Z,7.10
2018-08-24T11:03:34.961Z,6.60
2018-08-24T11:06:03.481Z,6.20
2018-08-24T11:08:32.171Z,5.70
2018-08-24T11:11:00.694Z,5.90
2018-08-24T11:13:29.200Z,6.20
2018-08-24T11:15:57.710Z,6.23
2018-08-24T11:18:26.215Z,7.87
2018-08-24T11:20:54.820Z,5.67
2018-08-24T11:23:23.348Z,4.67
2018-08-24T11:25:51.892Z,7.20
2018-08-24T11:28:20.393Z,5.20
2018-08-24T11:30:48.963Z,6.60
2018-08-24T11:33:17.521Z,5.90
2018-08-24T11:35:46.069Z,4.97
2018-08-24T11:38:14.550Z,3.37
2018-08-24T11:40:43.077Z,8.53
2018-08-24T11:43:11.549Z,5.23
2018-08-24T11:45:40.053Z,8.40
2018-08-24T11:48:08.539Z,7.37
2018-08-24T11:50:36.995Z,5.00
2018-08-24T11:53:05.462Z,3.83
2018-08-24T11:55:33.902Z,12.63
2018-08-24T11:58:03.064Z,10.47
2018-08-24T12:00:32.873Z,7.50
2018-08-24T12:03:02.285Z,3.70
2018-08-24T12:05:31.392Z,3.97
2018-08-24T12:08:00.003Z,5.70
2018-08-24T12:10:28.355Z,4.57
2018-08-24T12:12:57.652Z,8.73
2018-08-24T12:15:26.122Z,7.30
2018-08-24T12:17:54.798Z,5.33
2018-08-24T12:20:23.293Z,6.00
2018-08-24T12:22:51.861Z,4.93
2018-08-24T12:25:20.436Z,5.53
2018-08-24T12:27:48.928Z,6.33
2018-08-24T12:30:17.397Z,5.47
2018-08-24T12:32:45.864Z,6.03
2018-08-24T12:35:14.314Z,4.50
2018-08-24T12:37:44.304Z,4.43
2018-08-24T12:40:13.284Z,9.80
2018-08-24T12:42:41.761Z,5.40
2018-08-24T12:45:10.278Z,4.03
2018-08-24T12:47:38.832Z,5.13
2018-08-24T12:50:07.972Z,4.10
2018-08-24T12:52:36.444Z,5.10
2018-08-24T12:55:05.104Z,8.00
2018-08-24T12:57:33.615Z,3.33
2018-08-24T13:00:02.258Z,3.17
2018-08-24T13:02:30.750Z,3.03
2018-08-24T13:04:59.229Z,5.43
2018-08-24T13:07:27.747Z,6.87
2018-08-24T13:09:56.224Z,4.40
2018-08-24T13:12:24.707Z,4.57
2018-08-24T13:14:53.179Z,5.70
2018-08-24T13:17:21.660Z,5.07
2018-08-24T13:19:50.142Z,5.37
2018-08-24T13:22:18.641Z,5.80
2018-08-24T13:24:47.108Z,4.63
2018-08-24T13:27:15.609Z,5.47
2018-08-24T13:29:44.059Z,4.33
2018-08-24T13:32:12.565Z,4.50
2018-08-24T13:34:41.048Z,4.63
2018-08-24T13:37:09.564Z,3.30
2018-08-24T13:39:38.018Z,5.40
2018-08-24T13:42:06.529Z,4.27
2018-08-24T13:44:35.066Z,6.47
2018-08-24T13:47:03.514Z,3.17
2018-08-24T13:49:31.985Z,5.17
2018-08-24T13:52:00.517Z,4.07
2018-08-24T13:54:28.947Z,4.30
2018-08-24T13:56:57.426Z,5.27
2018-08-24T13:59:25.891Z,2.30
2018-08-24T14:01:54.314Z,3.83
2018-08-24T14:04:22.813Z,4.67
2018-08-24T14:06:51.264Z,5.43
2018-08-24T14:09:19.716Z,4.10
2018-08-24T14:11:48.213Z,6.97
2018-08-24T14:14:16.626Z,4.03
2018-08-24T14:16:45.050Z,3.63
2018-08-24T14:19:13.468Z,4.17
2018-08-24T14:21:41.960Z,4.67
2018-08-24T14:24:10.440Z,4.53
2018-08-24T14:26:38.961Z,6.57
2018-08-24T14:29:07.432Z,4.13
2018-08-24T14:31:35.981Z,4.30
2018-08-24T14:34:04.452Z,5.37
2018-08-24T14:36:33.759Z,4.80
2018-08-24T14:39:02.287Z,9.00
2018-08-24T14:41:30.743Z,6.10
2018-08-24T14:43:59.283Z,6.10
2018-08-24T14:46:27.797Z,5.43
2018-08-24T14:48:56.259Z,3.97
2018-08-24T14:51:24.749Z,8.70
2018-08-24T14:53:53.225Z,7.70
2018-08-24T14:56:21.677Z,4.63
2018-08-24T14:58:50.159Z,5.77
2018-08-24T15:01:18.664Z,6.63
2018-08-24T15:03:47.146Z,4.83
2018-08-24T15:06:15.592Z,5.17
2018-08-24T15:08:44.089Z,4.87
2018-08-24T15:11:12.551Z,4.33
2018-08-24T15:13:41.053Z,4.33
2018-08-24T15:16:09.611Z,6.33
2018-08-24T15:18:38.146Z,2.00
2018-08-24T15:21:06.834Z,5.90
2018-08-24T15:23:35.391Z,4.67
2018-08-24T15:26:03.890Z,4.47
2018-08-24T15:28:32.462Z,6.33
2018-08-24T15:31:01.500Z,5.37
2018-08-24T15:33:30.226Z,5.57
2018-08-24T15:35:58.959Z,4.73
2018-08-24T15:38:27.477Z,4.30
2018-08-24T15:40:56.043Z,6.33
2018-08-24T15:43:24.586Z,5.57
2018-08-24T15:45:53.165Z,6.40
2018-08-24T15:48:21.653Z,5.40
2018-08-24T15:50:50.204Z,6.63
2018-08-24T15:53:18.714Z,5.80
2018-08-24T15:55:47.186Z,5.83
2018-08-24T15:58:15.719Z,4.60
2018-08-24T16:00:44.295Z,4.57
2018-08-24T16:03:12.818Z,5.97
2018-08-24T16:05:41.290Z,7.90
2018-08-24T16:08:09.834Z,6.80
2018-08-24T16:10:38.335Z,4.27
2018-08-24T16:13:06.905Z,6.87
2018-08-24T16:15:35.416Z,5.47
2018-08-24T16:18:09.229Z,3.60
2018-08-24T16:20:37.783Z,5.47
2018-08-24T16:23:06.643Z,5.13
2018-08-24T16:25:35.181Z,9.20
2018-08-24T16:28:03.681Z,6.40
2018-08-24T16:30:32.198Z,7.67
2018-08-24T16:33:00.682Z,5.83
2018-08-24T16:35:29.133Z,6.97
2018-08-24T16:37:57.674Z,8.40
2018-08-24T16:40:26.237Z,12.27
2018-08-24T16:42:54.745Z,10.43
2018-08-24T16:45:23.892Z,7.13
2018-08-24T16:47:52.388Z,9.67
2018-08-24T16:50:21.870Z,7.47
2018-08-24T16:52:50.350Z,6.77
2018-08-24T16:55:18.942Z,8.77
2018-08-24T16:57:48.502Z,5.90
2018-08-24T17:00:17.021Z,7.37
2018-08-24T17:02:45.498Z,5.80
2018-08-24T17:05:14.101Z,5.43
2018-08-24T17:07:44.502Z,5.63
2018-08-24T17:10:13.082Z,7.30
2018-08-24T17:12:41.550Z,8.43
2018-08-24T17:15:10.070Z,7.03
2018-08-24T17:17:38.532Z,6.83
2018-08-24T17:20:07.027Z,5.77
2018-08-24T17:22:35.494Z,9.37
2018-08-24T17:25:04.018Z,9.33
2018-08-24T17:27:32.459Z,9.13
2018-08-24T17:30:00.957Z,10.40
2018-08-24T17:32:29.455Z,6.90
2018-08-24T17:34:57.916Z,11.10
2018-08-24T17:37:26.389Z,6.83
2018-08-24T17:39:54.833Z,11.53
2018-08-24T17:42:23.263Z,10.80
2018-08-24T17:44:51.721Z,5.83
2018-08-24T17:47:20.189Z,8.93
2018-08-24T17:49:48.683Z,8.37
2018-08-24T17:52:17.152Z,7.70
2018-08-24T17:54:45.631Z,5.63
2018-08-24T17:57:14.081Z,11.13
2018-08-24T17:59:42.652Z,6.73
2018-08-24T18:02:11.179Z,8.47
2018-08-24T18:04:39.665Z,12.10
2018-08-24T18:07:08.755Z,7.70
2018-08-24T18:09:37.201Z,15.97
2018-08-24T18:12:05.753Z,11.47
2018-08-24T18:14:34.229Z,8.57
2018-08-24T18:17:02.720Z,12.13
2018-08-24T18:19:31.269Z,8.03
2018-08-24T18:21:59.736Z,21.20
2018-08-24T18:24:28.234Z,11.10
2018-08-24T18:26:56.707Z,10.80
2018-08-24T18:29:25.230Z,10.50
2018-08-24T18:31:53.697Z,13.23
2018-08-24T18:34:22.142Z,10.27
2018-08-24T18:36:50.589Z,11.00
2018-08-24T18:39:19.060Z,8.93
2018-08-24T18:41:47.502Z,7.47
2018-08-24T18:44:16.002Z,12.20
2018-08-24T18:46:44.466Z,12.20
2018-08-24T18:49:12.958Z,11.00
2018-08-24T18:51:41.500Z,9.23
2018-08-24T18:54:09.986Z,11.10
2018-08-24T18:56:38.554Z,9.93
2018-08-24T18:59:07.059Z,9.80
2018-08-24T19:01:35.572Z,10.73
2018-08-24T19:04:04.065Z,9.10
2018-08-24T19:06:32.540Z,10.50
2018-08-24T19:09:00.988Z,14.83
2018-08-24T19:11:34.717Z,11.73
2018-08-24T19:14:03.250Z,11.07
2018-08-24T19:16:31.736Z,17.67
2018-08-24T19:19:05.623Z,15.33
2018-08-24T19:21:39.451Z,11.57
2018-08-24T19:24:07.949Z,15.47
2018-08-24T19:26:36.485Z,8.67
2018-08-24T19:29:10.378Z,11.23
2018-08-24T19:31:38.862Z,11.93
2018-08-24T19:34:07.483Z,10.40
2018-08-24T19:36:35.963Z,12.83
2018-08-24T19:39:06.830Z,10.53
2018-08-24T19:41:40.457Z,11.03
2018-08-24T19:44:08.969Z,16.47
2018-08-24T19:46:37.453Z,10.47
2018-08-24T19:49:11.716Z,12.70
2018-08-24T19:51:40.297Z,16.03
2018-08-24T19:54:08.855Z,14.10
2018-08-24T19:56:37.593Z,10.70
2018-08-24T19:59:07.805Z,13.20
2018-08-24T20:01:36.295Z,13.77
2018-08-24T20:04:05.674Z,13.20
2018-08-24T20:06:39.700Z,13.57
2018-08-24T20:09:17.351Z,11.60
2018-08-24T20:11:48.622Z,13.00
2018-08-24T20:14:21.318Z,14.53
2018-08-24T20:16:55.431Z,18.60
2018-08-24T20:19:23.931Z,13.17
2018-08-24T20:21:52.385Z,11.13
2018-08-24T20:24:21.054Z,8.37
2018-08-24T20:26:49.961Z,7.57
2018-08-24T20:29:19.012Z,7.80
2018-08-24T20:31:47.506Z,10.10
2018-08-24T20:34:16.032Z,9.67
2018-08-24T20:36:44.804Z,11.80
2018-08-24T20:39:13.250Z,8.17
2018-08-24T20:41:41.949Z,12.60
2018-08-24T20:44:10.430Z,11.40
2018-08-24T20:46:38.902Z,9.87
2018-08-24T20:49:07.368Z,10.60
2018-08-24T20:51:35.834Z,10.00
2018-08-24T20:54:04.324Z,9.57
2018-08-24T20:56:32.811Z,12.63
2018-08-24T20:59:01.304Z,10.63
2018-08-24T21:01:29.768Z,12.33
2018-08-24T21:03:58.254Z,18.20
2018-08-24T21:06:26.711Z,12.67
2018-08-24T21:08:55.313Z,11.17
2018-08-24T21:11:23.777Z,13.37
2018-08-24T21:13:52.508Z,8.37
2018-08-24T21:16:21.014Z,12.73
2018-08-24T21:18:49.454Z,13.20
2018-08-24T21:21:17.956Z,15.10
2018-08-24T21:23:46.434Z,13.87
2018-08-24T21:26:14.917Z,14.57
2018-08-24T21:28:43.413Z,17.73
2018-08-24T21:31:11.876Z,12.93
2018-08-24T21:33:40.379Z,14.00
2018-08-24T21:36:08.821Z,13.47
2018-08-24T21:38:37.355Z,16.43
2018-08-24T21:41:05.819Z,11.23
2018-08-24T21:43:34.231Z,8.27
2018-08-24T21:46:02.751Z,28.27
2018-08-24T21:48:31.149Z,9.50
2018-08-24T21:50:59.597Z,10.00
2018-08-24T21:53:28.035Z,10.10
2018-08-24T21:55:56.473Z,8.77
2018-08-24T21:58:24.931Z,12.30
2018-08-24T22:00:53.408Z,12.10
2018-08-24T22:03:21.867Z,12.97
2018-08-24T22:05:50.341Z,9.93
2018-08-24T22:08:18.851Z,14.13
2018-08-24T22:10:47.366Z,6.87
2018-08-24T22:13:15.803Z,7.27
2018-08-24T22:15:44.262Z,4.57
2018-08-24T22:18:12.718Z,5.17
2018-08-24T22:20:41.204Z,7.83
2018-08-24T22:23:09.634Z,4.93
2018-08-24T22:25:38.108Z,4.20
2018-08-24T22:28:06.560Z,4.83
2018-08-24T22:30:35.012Z,8.27
2018-08-24T22:33:03.474Z,5.00
2018-08-24T22:35:31.953Z,8.77
2018-08-24T22:38:00.424Z,4.63
2018-08-24T22:40:28.879Z,6.03
2018-08-24T22:42:57.363Z,3.93
2018-08-24T22:45:25.829Z,3.20
2018-08-24T22:47:54.419Z,11.13
2018-08-24T22:50:23.111Z,5.07
2018-08-24T22:52:51.617Z,5.10
2018-08-24T22:55:20.050Z,3.83
2018-08-24T22:57:48.537Z,5.77
2018-08-24T23:00:17.039Z,5.43
2018-08-24T23:02:45.500Z,6.33
2018-08-24T23:05:13.995Z,6.33
2018-08-24T23:07:42.492Z,8.30
2018-08-24T23:10:10.925Z,8.77
2018-08-24T23:12:39.383Z,7.57
2018-08-24T23:15:07.847Z,8.73
2018-08-24T23:17:36.350Z,8.07
2018-08-24T23:20:04.853Z,8.63
2018-08-24T23:22:33.298Z,12.27
2018-08-24T23:25:01.774Z,8.97
2018-08-24T23:27:30.282Z,11.33
2018-08-24T23:29:58.725Z,20.87
2018-08-24T23:32:27.174Z,18.33
2018-08-24T23:34:55.612Z,11.47
2018-08-24T23:37:24.110Z,10.60
2018-08-24T23:39:52.576Z,22.43
2018-08-24T23:42:21.022Z,12.20
2018-08-24T23:44:49.465Z,14.80
2018-08-24T23:47:17.947Z,13.83
2018-08-24T23:49:46.480Z,11.17
2018-08-24T23:52:14.908Z,10.10
2018-08-24T23:54:43.356Z,11.27
2018-08-24T23:57:11.805Z,11.97
2018-08-24T23:59:40.240Z,9.77
